Time;durP1;ratioP1;P1;durP2;ratioP2;P2;SDS_P1;SDS_P2;PMS_P1;PMS_P2;Temp;Humidity;BMP_temperature;BMP_pressure;BME280_temperature;BME280_humidity;BME280_pressure;Samples;Min_cycle;Max_cycle;Signal;HPM_P1;HPM_P2
2021/01/27 00:02:16;;;;;;;11.37;8.17;;;0.40;99.90;;;;;;5017533;28;20177;-77
2021/01/27 00:04:42;;;;;;;11.50;9.00;;;0.40;99.90;;;;;;5018475;28;20528;-77
2021/01/27 00:07:08;;;;;;;10.77;7.93;;;0.40;99.90;;;;;;5018258;28;20485;-76
2021/01/27 00:09:34;;;;;;;11.83;8.20;;;0.40;99.90;;;;;;5018928;28;20264;-76
2021/01/27 00:11:59;;;;;;;12.37;8.20;;;0.40;99.90;;;;;;5018575;28;20270;-77
2021/01/27 00:14:25;;;;;;;12.57;8.90;;;0.40;99.90;;;;;;5016794;28;20189;-77
2021/01/27 00:16:51;;;;;;;9.87;8.30;;;0.50;99.90;;;;;;5019798;28;20213;-77
2021/01/27 00:19:17;;;;;;;16.03;9.13;;;0.40;99.90;;;;;;5011094;28;20207;-77
2021/01/27 00:21:43;;;;;;;15.57;9.83;;;0.50;99.90;;;;;;5017190;28;20442;-77
2021/01/27 00:24:09;;;;;;;13.00;8.50;;;0.50;99.90;;;;;;5014982;28;20893;-76
2021/01/27 00:26:35;;;;;;;10.53;8.00;;;0.50;99.90;;;;;;5018015;28;20280;-77
2021/01/27 00:29:00;;;;;;;12.73;8.60;;;0.50;99.90;;;;;;5018298;28;21008;-77
2021/01/27 00:31:26;;;;;;;12.23;7.73;;;0.50;99.90;;;;;;5018369;28;20235;-77
2021/01/27 00:33:52;;;;;;;9.40;7.90;;;0.40;99.90;;;;;;5013919;28;20605;-77
2021/01/27 00:36:18;;;;;;;14.17;8.93;;;0.40;99.90;;;;;;5018896;28;20442;-76
2021/01/27 00:38:44;;;;;;;9.27;7.73;;;0.40;99.90;;;;;;5017554;28;20296;-77
2021/01/27 00:41:10;;;;;;;11.80;8.33;;;0.30;99.90;;;;;;5019214;28;20779;-77
2021/01/27 00:43:37;;;;;;;11.13;7.83;;;0.30;99.90;;;;;;5014871;28;20185;-77
2021/01/27 00:46:03;;;;;;;12.57;8.80;;;0.30;99.90;;;;;;5013347;28;20226;-77
2021/01/27 00:48:29;;;;;;;12.53;8.57;;;0.20;99.90;;;;;;5014517;28;20447;-77
2021/01/27 00:50:54;;;;;;;14.60;9.00;;;0.20;99.90;;;;;;5019654;28;20448;-77
2021/01/27 00:53:21;;;;;;;11.70;8.07;;;0.20;99.90;;;;;;5015132;28;20182;-76
2021/01/27 00:55:46;;;;;;;12.57;8.77;;;0.10;99.90;;;;;;5017120;28;20187;-76
2021/01/27 00:58:12;;;;;;;12.50;9.23;;;0.00;99.90;;;;;;5015867;28;20459;-76
2021/01/27 01:00:40;;;;;;;12.80;8.63;;;0.00;99.90;;;;;;5032766;28;20440;-76
2021/01/27 01:03:08;;;;;;;11.60;8.37;;;0.00;99.90;;;;;;5015379;28;20443;-76
2021/01/27 01:05:37;;;;;;;12.30;6.87;;;0.00;99.90;;;;;;5014305;28;20498;-77
2021/01/27 01:08:04;;;;;;;14.77;8.87;;;0.00;99.90;;;;;;5012325;28;20446;-76
2021/01/27 01:10:32;;;;;;;10.10;9.20;;;0.00;99.90;;;;;;5006017;28;20452;-76
2021/01/27 01:12:59;;;;;;;12.93;8.60;;;0.00;99.90;;;;;;5015400;28;20459;-77
2021/01/27 01:15:27;;;;;;;11.70;7.97;;;0.00;99.90;;;;;;5018337;28;20913;-76
2021/01/27 01:17:53;;;;;;;13.07;8.30;;;0.00;99.90;;;;;;5014023;28;20530;-76
2021/01/27 01:20:19;;;;;;;10.67;7.40;;;-0.10;99.90;;;;;;5016017;28;20892;-77
2021/01/27 01:22:49;;;;;;;12.20;7.67;;;0.00;99.90;;;;;;5015956;28;20439;-76
2021/01/27 01:25:18;;;;;;;18.93;9.07;;;0.00;99.90;;;;;;5016679;28;21016;-76
2021/01/27 01:27:44;;;;;;;8.60;7.70;;;0.00;99.90;;;;;;5015372;28;20444;-76
2021/01/27 01:30:21;;;;;;;11.57;8.40;;;0.00;99.90;;;;;;5014730;28;20790;-76
2021/01/27 01:32:46;;;;;;;13.40;8.90;;;0.00;99.90;;;;;;5017918;28;20443;-76
2021/01/27 01:35:14;;;;;;;18.83;10.37;;;0.10;99.90;;;;;;5011272;28;20472;-76
2021/01/27 01:37:42;;;;;;;15.80;8.90;;;0.20;99.90;;;;;;5015662;28;20206;-76
2021/01/27 01:40:10;;;;;;;19.20;9.60;;;0.30;99.90;;;;;;5020729;28;20907;-77
2021/01/27 01:42:37;;;;;;;9.83;7.43;;;0.30;99.90;;;;;;5019540;28;20433;-76
2021/01/27 01:45:28;;;;;;;11.17;8.27;;;0.30;99.90;;;;;;5016833;28;20436;-76
2021/01/27 01:47:58;;;;;;;15.30;8.00;;;0.30;99.90;;;;;;5012477;28;20446;-76
2021/01/27 01:50:24;;;;;;;11.20;8.10;;;0.40;99.90;;;;;;5015979;28;20444;-76
2021/01/27 01:52:54;;;;;;;16.20;10.37;;;0.40;99.90;;;;;;5019045;28;20434;-76
2021/01/27 01:55:21;;;;;;;9.00;7.93;;;0.50;99.90;;;;;;5017875;28;20451;-76
2021/01/27 01:57:50;;;;;;;16.83;7.63;;;0.40;99.90;;;;;;5017914;28;20441;-76
2021/01/27 02:00:16;;;;;;;14.77;8.70;;;0.40;99.90;;;;;;5012816;28;20436;-76
2021/01/27 02:02:44;;;;;;;10.87;7.80;;;0.40;99.90;;;;;;5012637;28;20440;-76
2021/01/27 02:05:17;;;;;;;13.80;9.33;;;0.30;99.90;;;;;;5006555;28;20437;-76
2021/01/27 02:07:43;;;;;;;11.40;8.97;;;0.30;99.90;;;;;;5014717;28;20924;-76
2021/01/27 02:10:10;;;;;;;11.30;8.43;;;0.30;99.90;;;;;;5015655;28;20468;-76
2021/01/27 02:12:41;;;;;;;17.43;9.87;;;0.40;99.90;;;;;;5016258;28;20572;-76
2021/01/27 02:15:40;;;;;;;12.93;9.00;;;0.50;99.90;;;;;;5012576;28;20440;-76
2021/01/27 02:18:14;;;;;;;15.57;9.30;;;0.50;99.90;;;;;;5012220;28;20464;-76
2021/01/27 02:21:04;;;;;;;14.20;9.53;;;0.50;99.90;;;;;;5016998;28;20430;-76
2021/01/27 02:23:59;;;;;;;13.47;9.83;;;0.60;99.90;;;;;;5001005;28;20439;-76
2021/01/27 02:26:37;;;;;;;17.13;9.07;;;0.60;99.90;;;;;;5011820;28;20518;-76
2021/01/27 02:29:08;;;;;;;16.43;9.77;;;0.50;99.90;;;;;;5013722;28;20435;-76
2021/01/27 02:32:06;;;;;;;15.03;9.97;;;0.60;99.90;;;;;;5015448;28;21365;-76
2021/01/27 02:34:51;;;;;;;13.40;10.10;;;0.60;99.90;;;;;;5013739;28;20432;-76
2021/01/27 02:37:26;;;;;;;16.07;9.80;;;0.60;99.90;;;;;;5014250;28;20815;-76
2021/01/27 02:39:58;;;;;;;20.47;10.77;;;0.70;99.90;;;;;;5013610;28;20531;-76
2021/01/27 02:42:33;;;;;;;12.80;8.73;;;0.70;99.90;;;;;;5011546;28;20428;-76
2021/01/27 02:45:02;;;;;;;15.67;10.73;;;0.70;99.90;;;;;;5017412;28;20760;-76
2021/01/27 02:47:57;;;;;;;15.47;9.57;;;0.70;99.90;;;;;;5014493;28;20424;-76
2021/01/27 02:50:28;;;;;;;12.13;9.07;;;0.70;99.90;;;;;;5014945;28;20625;-76
2021/01/27 02:53:01;;;;;;;19.20;11.17;;;0.70;99.90;;;;;;5017168;28;20440;-76
2021/01/27 02:55:33;;;;;;;13.23;9.20;;;0.70;99.90;;;;;;5017521;28;20940;-76
2021/01/27 02:58:06;;;;;;;17.20;11.20;;;0.70;99.90;;;;;;5016448;28;20470;-76
2021/01/27 03:00:36;;;;;;;15.83;10.83;;;0.70;99.90;;;;;;5009081;28;20427;-76
2021/01/27 03:03:07;;;;;;;14.13;11.00;;;0.70;99.90;;;;;;5014503;28;20876;-76
2021/01/27 03:05:43;;;;;;;19.00;12.20;;;0.70;99.90;;;;;;5016896;28;20428;-76
2021/01/27 03:08:17;;;;;;;17.60;12.60;;;0.70;99.90;;;;;;5013786;28;20940;-76
2021/01/27 03:11:08;;;;;;;17.57;10.80;;;0.80;99.90;;;;;;5014177;28;20440;-76
2021/01/27 03:13:35;;;;;;;19.77;10.77;;;0.80;99.90;;;;;;5013294;28;20938;-76
2021/01/27 03:16:07;;;;;;;19.60;11.70;;;0.80;99.90;;;;;;5013063;28;20999;-76
2021/01/27 03:18:37;;;;;;;16.93;10.90;;;0.80;99.90;;;;;;5017369;28;20514;-76
2021/01/27 03:21:08;;;;;;;19.50;12.83;;;0.90;99.90;;;;;;5044558;28;20775;-77
2021/01/27 03:23:39;;;;;;;21.87;12.67;;;0.80;99.90;;;;;;5009089;28;20442;-76
2021/01/27 03:26:24;;;;;;;17.40;11.00;;;0.90;99.90;;;;;;5014151;28;20434;-76
2021/01/27 03:29:01;;;;;;;22.03;12.57;;;0.90;99.90;;;;;;5012856;28;20451;-76
2021/01/27 03:31:27;;;;;;;20.27;12.70;;;0.90;99.90;;;;;;5048415;28;20443;-76
2021/01/27 03:34:17;;;;;;;20.57;12.70;;;0.90;99.90;;;;;;5011142;28;20546;-76
2021/01/27 03:37:02;;;;;;;21.77;14.00;;;1.00;99.90;;;;;;5020678;28;20814;-76
2021/01/27 03:39:33;;;;;;;22.43;11.90;;;1.00;99.90;;;;;;5012197;28;20460;-76
2021/01/27 03:42:05;;;;;;;22.00;13.13;;;0.90;99.90;;;;;;5016419;28;20426;-76
2021/01/27 03:44:44;;;;;;;21.70;13.33;;;0.90;99.90;;;;;;5019458;28;20527;-76
2021/01/27 03:47:27;;;;;;;23.97;13.77;;;1.00;99.90;;;;;;5014998;28;20432;-76
2021/01/27 03:50:06;;;;;;;27.03;13.63;;;1.00;99.90;;;;;;5020777;28;20441;-76
2021/01/27 03:52:35;;;;;;;26.93;16.00;;;1.00;99.90;;;;;;5019367;28;20439;-76
2021/01/27 03:55:09;;;;;;;27.73;14.80;;;1.10;99.90;;;;;;5017248;28;20491;-76
2021/01/27 03:57:39;;;;;;;26.07;15.00;;;1.10;99.90;;;;;;5020036;28;20477;-76
2021/01/27 04:00:07;;;;;;;20.47;13.70;;;1.10;99.90;;;;;;5018684;28;20447;-76
2021/01/27 04:02:33;;;;;;;27.90;15.70;;;1.10;99.90;;;;;;5017063;28;20437;-76
2021/01/27 04:04:58;;;;;;;28.83;15.63;;;1.00;99.90;;;;;;5016989;28;20436;-76
2021/01/27 04:07:24;;;;;;;27.67;15.80;;;1.10;99.90;;;;;;5020218;28;20172;-76
2021/01/27 04:09:50;;;;;;;35.43;17.27;;;1.20;99.90;;;;;;5015956;28;20231;-76
2021/01/27 04:12:15;;;;;;;29.03;16.70;;;1.20;99.90;;;;;;5017767;28;20255;-76
2021/01/27 04:14:41;;;;;;;29.60;16.77;;;1.20;99.90;;;;;;5015888;28;20185;-76
2021/01/27 04:17:28;;;;;;;32.27;17.80;;;1.20;99.90;;;;;;5016226;28;20202;-76
2021/01/27 04:19:56;;;;;;;32.00;18.40;;;1.20;99.90;;;;;;5017942;28;20232;-76
2021/01/27 04:22:22;;;;;;;25.93;17.23;;;1.20;99.90;;;;;;5019899;28;20544;-76
2021/01/27 04:24:47;;;;;;;27.90;16.67;;;1.20;99.90;;;;;;5015215;28;20523;-75
2021/01/27 04:27:13;;;;;;;26.20;16.77;;;1.20;99.90;;;;;;5015945;28;20483;-76
2021/01/27 04:29:39;;;;;;;35.00;18.70;;;1.30;99.90;;;;;;5018309;28;20271;-76
2021/01/27 04:32:05;;;;;;;28.37;17.40;;;1.30;99.90;;;;;;5017868;28;20459;-76
2021/01/27 04:34:32;;;;;;;40.20;19.90;;;1.30;99.90;;;;;;5015739;28;20476;-76
2021/01/27 04:36:58;;;;;;;29.63;16.33;;;1.30;99.90;;;;;;5016391;28;20174;-76
2021/01/27 04:39:23;;;;;;;34.53;18.43;;;1.30;99.90;;;;;;5015881;28;20475;-75
2021/01/27 04:41:49;;;;;;;32.97;18.27;;;1.30;99.90;;;;;;5016833;28;20184;-76
2021/01/27 04:44:15;;;;;;;29.43;16.37;;;1.30;99.90;;;;;;5016000;28;20182;-76
2021/01/27 04:46:53;;;;;;;35.33;19.43;;;1.30;99.90;;;;;;5018268;28;20202;-76
2021/01/27 04:49:26;;;;;;;29.97;18.37;;;1.30;99.90;;;;;;5012144;28;20574;-76
2021/01/27 04:52:01;;;;;;;33.13;17.53;;;1.30;99.90;;;;;;5018281;28;20499;-76
2021/01/27 04:54:39;;;;;;;35.80;18.03;;;1.30;99.90;;;;;;5014745;28;20900;-76
2021/01/27 04:57:27;;;;;;;32.80;19.53;;;1.30;99.90;;;;;;5020114;28;20864;-76
2021/01/27 05:00:10;;;;;;;31.47;17.20;;;1.30;99.90;;;;;;5012942;28;20564;-75
2021/01/27 05:02:36;;;;;;;29.83;16.63;;;1.40;99.90;;;;;;5015936;28;20429;-76
2021/01/27 05:05:12;;;;;;;36.83;18.50;;;1.40;99.90;;;;;;5017469;28;20438;-76
2021/01/27 05:07:43;;;;;;;30.70;18.53;;;1.50;99.90;;;;;;5018305;28;20182;-76
2021/01/27 05:10:13;;;;;;;37.97;19.20;;;1.50;99.90;;;;;;5010674;28;20766;-76
2021/01/27 05:12:50;;;;;;;34.90;17.90;;;1.50;99.90;;;;;;5014586;28;20763;-76
2021/01/27 05:15:17;;;;;;;37.53;18.17;;;1.40;99.90;;;;;;5014966;28;20428;-76
2021/01/27 05:17:46;;;;;;;45.57;20.57;;;1.50;99.90;;;;;;5020839;28;20440;-76
2021/01/27 05:20:15;;;;;;;32.03;17.40;;;1.50;99.90;;;;;;5026497;28;20441;-76
2021/01/27 05:22:40;;;;;;;40.77;19.30;;;1.50;99.90;;;;;;5020258;28;20434;-76
2021/01/27 05:25:13;;;;;;;36.77;18.50;;;1.40;99.90;;;;;;5012739;28;20428;-76
2021/01/27 05:27:39;;;;;;;36.77;19.20;;;1.50;99.90;;;;;;5013317;28;20635;-76
2021/01/27 05:30:07;;;;;;;30.37;17.00;;;1.40;99.90;;;;;;5014558;28;20463;-76
2021/01/27 05:32:55;;;;;;;33.83;19.67;;;1.50;99.90;;;;;;5016681;28;20429;-76
2021/01/27 05:35:26;;;;;;;31.87;17.70;;;1.40;99.90;;;;;;5018016;28;20852;-76
2021/01/27 05:37:51;;;;;;;31.43;18.27;;;1.40;99.90;;;;;;5013275;28;20933;-76
2021/01/27 05:40:30;;;;;;;33.07;18.70;;;1.40;99.90;;;;;;5017080;28;20471;-76
2021/01/27 05:42:57;;;;;;;33.57;18.93;;;1.40;99.90;;;;;;5018491;28;20726;-76
2021/01/27 05:45:42;;;;;;;36.03;20.07;;;1.40;99.90;;;;;;5014969;28;20430;-76
2021/01/27 05:48:29;;;;;;;29.60;19.17;;;1.40;99.90;;;;;;5016166;28;20761;-76
2021/01/27 05:51:17;;;;;;;37.03;19.50;;;1.50;99.90;;;;;;5012056;28;20471;-76
2021/01/27 05:53:42;;;;;;;29.00;17.10;;;1.50;99.90;;;;;;5012358;28;20499;-77
2021/01/27 05:56:23;;;;;;;32.50;19.70;;;1.50;99.90;;;;;;5018684;28;20943;-76
2021/01/27 05:58:59;;;;;;;38.57;18.80;;;1.50;99.90;;;;;;5009822;28;20468;-76
2021/01/27 06:01:39;;;;;;;38.73;18.17;;;1.50;99.90;;;;;;5013628;28;20894;-76
2021/01/27 06:04:11;;;;;;;37.00;17.70;;;1.50;99.90;;;;;;5006516;28;20427;-76
2021/01/27 06:06:40;;;;;;;40.30;21.53;;;1.50;99.90;;;;;;5008491;28;20437;-76
2021/01/27 06:09:07;;;;;;;37.87;21.20;;;1.50;99.90;;;;;;5013745;28;20437;-76
2021/01/27 06:11:33;;;;;;;39.33;20.70;;;1.50;99.90;;;;;;5015156;28;20956;-76
2021/01/27 06:14:15;;;;;;;43.70;22.20;;;1.60;99.90;;;;;;5009744;28;20981;-76
2021/01/27 06:16:45;;;;;;;35.37;20.50;;;1.50;99.90;;;;;;5012701;28;20449;-76
2021/01/27 06:19:13;;;;;;;35.83;21.37;;;1.50;99.90;;;;;;5013455;28;20469;-76
2021/01/27 06:21:57;;;;;;;40.67;21.27;;;1.50;99.90;;;;;;5014015;28;20434;-76
2021/01/27 06:24:38;;;;;;;35.93;21.57;;;1.40;99.90;;;;;;5011383;28;20491;-76
2021/01/27 06:27:32;;;;;;;35.27;20.53;;;1.50;99.90;;;;;;5010257;28;20447;-76
2021/01/27 06:30:16;;;;;;;36.27;20.10;;;1.50;99.90;;;;;;5010235;28;20843;-76
2021/01/27 06:32:45;;;;;;;39.93;21.93;;;1.50;99.90;;;;;;5005814;28;21147;-76
2021/01/27 06:35:18;;;;;;;38.73;22.80;;;1.50;99.90;;;;;;5012283;28;20513;-76
2021/01/27 06:37:52;;;;;;;43.13;23.40;;;1.40;99.90;;;;;;5010429;28;20583;-76
2021/01/27 06:40:52;;;;;;;36.93;21.90;;;1.40;99.90;;;;;;5006594;28;20926;-76
2021/01/27 06:43:28;;;;;;;45.17;23.20;;;1.50;99.90;;;;;;5011049;28;20454;-76
2021/01/27 06:46:20;;;;;;;45.23;23.80;;;1.50;99.90;;;;;;5005172;28;20436;-77
2021/01/27 06:48:49;;;;;;;36.30;20.60;;;1.50;99.90;;;;;;5009725;28;20425;-76
2021/01/27 06:51:44;;;;;;;41.93;24.20;;;1.50;99.90;;;;;;5014627;28;20497;-76
2021/01/27 06:54:42;;;;;;;40.10;22.97;;;1.50;99.90;;;;;;5012281;28;21557;-74
2021/01/27 06:57:17;;;;;;;36.63;23.23;;;1.40;99.90;;;;;;5012047;28;20452;-75
2021/01/27 07:00:23;;;;;;;40.60;24.07;;;1.40;99.90;;;;;;5015905;28;20462;-75
2021/01/27 07:03:21;;;;;;;37.37;21.00;;;1.50;99.90;;;;;;5019233;28;20482;-75
2021/01/27 07:05:53;;;;;;;39.70;22.30;;;1.40;99.90;;;;;;5015766;28;20429;-74
2021/01/27 07:08:48;;;;;;;46.53;22.77;;;1.40;99.90;;;;;;5023546;28;20447;-74
2021/01/27 07:11:23;;;;;;;39.13;23.03;;;1.40;99.90;;;;;;5020238;28;20472;-74
2021/01/27 07:14:05;;;;;;;43.17;23.53;;;1.30;99.90;;;;;;5024247;28;20428;-74
2021/01/27 07:17:16;;;;;;;36.20;20.97;;;1.30;99.90;;;;;;5021686;28;20449;-74
2021/01/27 07:20:00;;;;;;;45.63;22.10;;;1.30;99.90;;;;;;5011709;28;20926;-74
2021/01/27 07:22:53;;;;;;;41.03;20.60;;;1.30;99.90;;;;;;5017041;28;20458;-73
2021/01/27 07:25:30;;;;;;;39.40;22.27;;;1.30;99.90;;;;;;5019050;28;20463;-73
2021/01/27 07:28:08;;;;;;;42.23;22.87;;;1.30;99.90;;;;;;5018786;28;20434;-73
2021/01/27 07:31:03;;;;;;;41.70;22.00;;;1.30;99.90;;;;;;5019604;28;20452;-73
2021/01/27 07:33:56;;;;;;;37.40;20.60;;;1.30;99.90;;;;;;5018759;28;20454;-74
2021/01/27 07:36:50;;;;;;;35.47;22.97;;;1.30;99.90;;;;;;5020074;28;20442;-74
2021/01/27 07:39:46;;;;;;;39.40;20.47;;;1.40;99.90;;;;;;5021173;28;20463;-74
2021/01/27 07:42:21;;;;;;;44.70;23.60;;;1.40;99.90;;;;;;5019597;28;20440;-74
2021/01/27 07:44:51;;;;;;;42.67;23.30;;;1.40;99.90;;;;;;5017762;28;20431;-75
2021/01/27 07:47:48;;;;;;;42.10;23.73;;;1.30;99.90;;;;;;5018796;28;20433;-77
2021/01/27 07:50:19;;;;;;;37.00;21.90;;;1.40;99.90;;;;;;5016391;28;20436;-76
2021/01/27 07:53:22;;;;;;;41.30;23.17;;;1.40;99.90;;;;;;5017349;28;20769;-74
2021/01/27 07:56:13;;;;;;;38.63;21.07;;;1.40;99.90;;;;;;5018466;28;20469;-73
2021/01/27 07:58:53;;;;;;;32.37;19.77;;;1.40;99.90;;;;;;5014271;28;20875;-74
2021/01/27 08:01:32;;;;;;;41.97;21.53;;;1.30;99.90;;;;;;5021424;28;20922;-74
2021/01/27 08:04:18;;;;;;;33.60;20.83;;;1.40;99.90;;;;;;5021841;28;20474;-75
2021/01/27 08:06:48;;;;;;;35.67;20.50;;;1.30;99.90;;;;;;5018794;28;20498;-74
2021/01/27 08:09:33;;;;;;;29.80;18.90;;;1.30;99.90;;;;;;5019695;28;20911;-74
2021/01/27 08:12:19;;;;;;;30.73;19.20;;;1.30;99.90;;;;;;5020598;28;20520;-74
2021/01/27 08:14:57;;;;;;;31.57;19.50;;;1.40;99.90;;;;;;5018835;28;20451;-74
2021/01/27 08:17:51;;;;;;;32.30;20.50;;;1.30;99.90;;;;;;5016751;28;21065;-74
2021/01/27 08:20:16;;;;;;;31.70;20.83;;;1.30;99.90;;;;;;5008240;28;20772;-74
2021/01/27 08:23:00;;;;;;;30.83;18.97;;;1.30;99.90;;;;;;5013093;28;20430;-74
2021/01/27 08:25:48;;;;;;;36.67;20.77;;;1.30;99.90;;;;;;5018297;28;20247;-74
2021/01/27 08:28:35;;;;;;;26.93;17.93;;;1.30;99.90;;;;;;5020224;28;20436;-74
2021/01/27 08:31:10;;;;;;;29.07;18.83;;;1.30;99.90;;;;;;5018340;28;20443;-74
2021/01/27 08:33:44;;;;;;;29.27;18.67;;;1.30;99.90;;;;;;5020593;28;20999;-74
2021/01/27 08:36:28;;;;;;;31.73;19.73;;;1.40;99.90;;;;;;5013403;28;20493;-74
2021/01/27 08:38:57;;;;;;;28.90;18.40;;;1.50;99.90;;;;;;5017295;28;20560;-73
2021/01/27 08:41:44;;;;;;;30.00;18.13;;;1.40;99.90;;;;;;5019555;28;20426;-74
2021/01/27 08:44:26;;;;;;;32.50;18.73;;;1.40;99.90;;;;;;5012190;28;20432;-74
2021/01/27 08:46:57;;;;;;;33.60;18.77;;;1.50;99.90;;;;;;5021427;28;20439;-74
2021/01/27 08:49:46;;;;;;;31.20;19.63;;;1.50;99.90;;;;;;5015451;28;20469;-74
2021/01/27 08:52:12;;;;;;;31.90;18.20;;;1.60;99.90;;;;;;5016797;28;20467;-74
2021/01/27 08:54:37;;;;;;;29.73;17.87;;;1.60;99.90;;;;;;5018556;28;20513;-74
2021/01/27 08:57:25;;;;;;;28.67;18.33;;;1.70;99.90;;;;;;5014515;28;20189;-74
2021/01/27 09:00:04;;;;;;;27.80;16.20;;;1.70;99.90;;;;;;5016083;28;20199;-74
2021/01/27 09:02:44;;;;;;;35.40;18.97;;;1.70;99.90;;;;;;5015614;28;20421;-74
2021/01/27 09:05:13;;;;;;;27.73;18.23;;;1.80;99.90;;;;;;5015626;28;20430;-74
2021/01/27 09:08:09;;;;;;;26.03;16.97;;;1.80;99.90;;;;;;5020449;28;20825;-75
2021/01/27 09:10:43;;;;;;;26.60;16.53;;;1.90;99.90;;;;;;5012372;28;20437;-74
2021/01/27 09:13:31;;;;;;;29.00;17.03;;;1.90;99.90;;;;;;5015749;28;20496;-73
2021/01/27 09:16:10;;;;;;;34.10;16.60;;;1.90;99.90;;;;;;5016977;28;20468;-74
2021/01/27 09:18:37;;;;;;;22.17;15.70;;;1.90;99.90;;;;;;5018494;28;20452;-74
2021/01/27 09:21:14;;;;;;;24.80;14.23;;;2.00;99.90;;;;;;5018003;28;20444;-74
2021/01/27 09:23:41;;;;;;;23.73;16.23;;;2.00;99.90;;;;;;5011484;28;21066;-74
2021/01/27 09:26:22;;;;;;;23.23;13.50;;;2.10;99.90;;;;;;5014258;28;20436;-74
2021/01/27 09:28:49;;;;;;;21.17;13.30;;;2.10;99.90;;;;;;5012613;28;20484;-75
2021/01/27 09:31:19;;;;;;;23.40;13.03;;;2.20;99.90;;;;;;5010612;28;20448;-74
2021/01/27 09:33:45;;;;;;;25.20;14.97;;;2.10;99.90;;;;;;5013718;28;20436;-74
2021/01/27 09:36:25;;;;;;;19.33;11.57;;;2.10;99.90;;;;;;5014156;28;20443;-74
2021/01/27 09:38:56;;;;;;;20.83;12.20;;;2.20;99.90;;;;;;5010676;28;20515;-74
2021/01/27 09:41:28;;;;;;;19.97;12.83;;;2.30;99.90;;;;;;5006186;28;20426;-74
2021/01/27 09:43:56;;;;;;;15.60;11.13;;;2.40;99.90;;;;;;5006338;28;20448;-75
2021/01/27 09:46:35;;;;;;;18.03;11.70;;;2.50;99.90;;;;;;5012439;28;20907;-74
2021/01/27 09:49:13;;;;;;;15.57;10.30;;;2.50;99.90;;;;;;5012129;28;20436;-74
2021/01/27 09:51:47;;;;;;;15.50;8.83;;;2.70;99.90;;;;;;5019138;28;20446;-74
2021/01/27 09:54:14;;;;;;;11.60;8.70;;;2.70;99.90;;;;;;5020792;28;20969;-75
2021/01/27 09:56:40;;;;;;;15.70;10.63;;;2.70;99.90;;;;;;5021419;28;20528;-75
2021/01/27 09:59:07;;;;;;;19.23;10.93;;;2.80;99.90;;;;;;5014395;28;20466;-75
2021/01/27 10:01:33;;;;;;;15.23;9.60;;;2.80;99.90;;;;;;5011378;28;20922;-74
2021/01/27 10:04:32;;;;;;;14.60;9.43;;;2.90;99.90;;;;;;5009845;28;20432;-75
2021/01/27 10:07:24;;;;;;;16.50;9.23;;;3.00;99.90;;;;;;5009696;28;20521;-73
2021/01/27 10:09:53;;;;;;;11.63;8.60;;;3.10;99.90;;;;;;5013595;28;20446;-73
2021/01/27 10:12:27;;;;;;;13.27;8.23;;;3.20;99.90;;;;;;5007113;28;20875;-73
2021/01/27 10:15:11;;;;;;;13.70;7.57;;;3.20;99.90;;;;;;5012163;28;20445;-73
2021/01/27 10:17:37;;;;;;;10.33;7.60;;;3.40;99.90;;;;;;5005577;28;20447;-73
2021/01/27 10:20:25;;;;;;;13.43;7.37;;;3.40;99.90;;;;;;5029326;28;20465;-73
2021/01/27 10:23:07;;;;;;;10.20;7.33;;;3.40;99.90;;;;;;5010129;28;20294;-72
2021/01/27 10:25:47;;;;;;;9.03;6.90;;;3.30;99.90;;;;;;5009884;28;20484;-73
2021/01/27 10:28:22;;;;;;;8.30;6.83;;;3.40;99.90;;;;;;5010907;28;24831;-73
2021/01/27 10:30:59;;;;;;;11.23;7.20;;;3.30;99.90;;;;;;5015009;28;20455;-73
2021/01/27 10:33:47;;;;;;;8.77;5.93;;;3.30;99.90;;;;;;5012028;28;21003;-72
2021/01/27 10:36:28;;;;;;;7.17;5.80;;;3.30;99.90;;;;;;5008908;28;20510;-73
2021/01/27 10:39:14;;;;;;;8.57;6.30;;;3.40;99.90;;;;;;5016210;28;20870;-72
2021/01/27 10:41:40;;;;;;;6.53;5.23;;;3.50;99.90;;;;;;5015765;28;20508;-72
2021/01/27 10:44:22;;;;;;;6.80;5.73;;;3.50;99.90;;;;;;5015356;28;20828;-72
2021/01/27 10:46:50;;;;;;;8.97;6.30;;;3.70;99.90;;;;;;5020481;28;20444;-73
2021/01/27 10:49:16;;;;;;;8.10;5.93;;;3.80;99.90;;;;;;5017343;28;20431;-74
2021/01/27 10:51:43;;;;;;;9.50;5.80;;;4.00;99.90;;;;;;5019220;28;20828;-72
2021/01/27 10:54:10;;;;;;;7.40;5.07;;;4.20;99.90;;;;;;5018873;28;20687;-72
2021/01/27 10:56:36;;;;;;;8.47;5.77;;;4.40;99.90;;;;;;5013324;28;20435;-73
2021/01/27 10:59:01;;;;;;;7.83;4.57;;;4.40;99.90;;;;;;5017437;28;20511;-73
2021/01/27 11:01:27;;;;;;;4.80;4.30;;;4.40;99.90;;;;;;5015419;28;20467;-72
2021/01/27 11:03:53;;;;;;;4.87;4.47;;;4.50;99.90;;;;;;5013474;28;20186;-73
2021/01/27 11:06:18;;;;;;;5.43;4.50;;;4.70;99.90;;;;;;5017499;28;20185;-73
2021/01/27 11:08:45;;;;;;;6.20;4.33;;;4.80;99.90;;;;;;5017446;28;20637;-73
2021/01/27 11:11:12;;;;;;;4.90;4.40;;;4.80;99.90;;;;;;5015204;28;20212;-72
2021/01/27 11:13:38;;;;;;;5.07;4.57;;;4.80;99.90;;;;;;5014866;28;20874;-72
2021/01/27 11:16:07;;;;;;;8.47;5.60;;;4.80;99.90;;;;;;5014923;28;20922;-72
2021/01/27 11:18:34;;;;;;;6.80;5.23;;;4.70;99.90;;;;;;5014854;28;20470;-72
2021/01/27 11:21:00;;;;;;;8.13;4.80;;;4.70;99.90;;;;;;5013974;28;20444;-72
2021/01/27 11:23:26;;;;;;;5.60;4.30;;;4.60;99.90;;;;;;5015992;28;20437;-72
2021/01/27 11:25:53;;;;;;;9.63;5.50;;;4.30;99.90;;;;;;5015967;28;20965;-72
2021/01/27 11:28:23;;;;;;;7.50;5.33;;;4.20;99.90;;;;;;5017784;28;21198;-72
2021/01/27 11:30:49;;;;;;;8.73;7.00;;;4.00;99.90;;;;;;5013964;28;20457;-72
2021/01/27 11:33:17;;;;;;;4.80;4.17;;;4.00;99.90;;;;;;5013472;28;20991;-72
2021/01/27 11:35:43;;;;;;;6.00;4.70;;;4.00;99.90;;;;;;5019972;28;20621;-72
2021/01/27 11:38:09;;;;;;;3.93;3.63;;;3.90;99.90;;;;;;5016037;28;20444;-72
2021/01/27 11:40:34;;;;;;;4.80;4.40;;;3.90;99.90;;;;;;5014329;28;21052;-72
2021/01/27 11:43:00;;;;;;;4.87;4.23;;;4.10;99.90;;;;;;5024774;28;20464;-72
2021/01/27 11:45:26;;;;;;;5.17;4.67;;;4.00;99.90;;;;;;5017195;28;20177;-72
2021/01/27 11:47:52;;;;;;;4.23;3.83;;;4.10;99.90;;;;;;5018050;28;20176;-72
2021/01/27 11:50:22;;;;;;;4.20;3.83;;;4.10;99.90;;;;;;5012360;28;20183;-72
2021/01/27 11:52:49;;;;;;;4.60;4.20;;;4.00;99.90;;;;;;5015849;28;20433;-71
2021/01/27 11:55:16;;;;;;;5.03;4.53;;;4.00;99.90;;;;;;5016015;28;20748;-71
2021/01/27 11:57:43;;;;;;;5.03;3.93;;;3.90;99.90;;;;;;5018349;28;20450;-72
2021/01/27 12:00:10;;;;;;;4.13;3.70;;;3.80;99.90;;;;;;5017386;28;20472;-72
2021/01/27 12:02:35;;;;;;;4.27;3.73;;;3.90;99.90;;;;;;5015465;28;20498;-73
2021/01/27 12:05:02;;;;;;;5.30;3.70;;;3.70;99.90;;;;;;5017362;28;20567;-73
2021/01/27 12:07:28;;;;;;;4.43;4.03;;;3.70;99.90;;;;;;5017391;28;20183;-73
2021/01/27 12:09:53;;;;;;;5.20;4.20;;;3.60;99.90;;;;;;5022002;28;20443;-73
2021/01/27 12:12:19;;;;;;;4.50;4.10;;;3.50;99.90;;;;;;5017828;28;20219;-73
2021/01/27 12:14:45;;;;;;;5.10;4.03;;;3.60;99.90;;;;;;5014333;28;20641;-72
2021/01/27 12:17:10;;;;;;;6.30;5.07;;;3.50;99.90;;;;;;5011054;28;20227;-71
2021/01/27 12:19:38;;;;;;;4.33;3.93;;;3.40;99.90;;;;;;5014776;28;20207;-71
2021/01/27 12:22:04;;;;;;;5.80;4.20;;;3.50;99.90;;;;;;5018464;28;20181;-71
2021/01/27 12:24:30;;;;;;;4.30;3.80;;;3.50;99.90;;;;;;5016737;28;20487;-71
2021/01/27 12:26:55;;;;;;;3.90;3.43;;;3.50;99.90;;;;;;5018418;28;20686;-71
2021/01/27 12:29:22;;;;;;;5.80;3.90;;;3.60;99.90;;;;;;5016645;28;20200;-71
2021/01/27 12:31:49;;;;;;;4.27;3.70;;;3.50;99.90;;;;;;5018268;28;20685;-71
2021/01/27 12:34:16;;;;;;;5.03;4.33;;;3.50;99.90;;;;;;5015541;28;20790;-71
2021/01/27 12:36:43;;;;;;;6.80;4.40;;;3.50;99.90;;;;;;5019506;28;20527;-71
2021/01/27 12:39:09;;;;;;;5.50;3.87;;;3.50;99.90;;;;;;5017546;28;20558;-71
2021/01/27 12:41:36;;;;;;;3.83;3.53;;;3.60;99.90;;;;;;5015848;28;20429;-71
2021/01/27 12:44:02;;;;;;;7.13;3.70;;;3.70;99.90;;;;;;5016170;28;21173;-71
2021/01/27 12:46:28;;;;;;;4.70;4.20;;;3.80;99.90;;;;;;5011322;28;20519;-71
2021/01/27 12:48:54;;;;;;;4.03;3.60;;;3.80;99.90;;;;;;5016328;28;20486;-71
2021/01/27 12:51:20;;;;;;;4.17;3.83;;;4.00;99.90;;;;;;5018099;28;20183;-71
2021/01/27 12:53:46;;;;;;;5.60;4.10;;;4.00;99.90;;;;;;5013561;28;20439;-71
2021/01/27 12:56:12;;;;;;;4.73;3.73;;;3.90;99.90;;;;;;5017818;28;20264;-71
2021/01/27 12:58:39;;;;;;;5.20;4.70;;;4.00;99.90;;;;;;5012323;28;20468;-71
2021/01/27 13:01:05;;;;;;;4.80;4.07;;;4.00;99.90;;;;;;5017520;28;20876;-71
2021/01/27 13:03:31;;;;;;;9.03;4.90;;;4.00;99.90;;;;;;5016741;28;20434;-71
2021/01/27 13:05:56;;;;;;;4.03;3.73;;;4.00;99.90;;;;;;5018240;28;20583;-71
2021/01/27 13:08:22;;;;;;;4.23;3.93;;;3.90;99.90;;;;;;5014112;28;20194;-71
2021/01/27 13:10:48;;;;;;;6.30;4.93;;;4.00;99.90;;;;;;5015937;28;21096;-71
2021/01/27 13:13:15;;;;;;;4.17;3.77;;;4.00;99.90;;;;;;5015330;28;20240;-71
2021/01/27 13:15:42;;;;;;;4.70;4.20;;;3.90;99.90;;;;;;5011638;28;20664;-71